This is the latest recevied weather packets stored in our database for station/object KE8CZD. If no packets are shown the sender has not sent any weather packets the latest 10 day(s).
| Time | Temp. | Humidity | Pressure | Rain* | Wind** | Luminosity | Snow |
|---|---|---|---|---|---|---|---|
| 1777932044 | 23.89° C | 33% | 995.2 hPa | 0 mm | - | - | - |
| 1777931684 | 23.89° C | 32% | 995.1 hPa | 0 mm | - | - | - |
| 1777931324 | 24.44° C | 31% | 994.9 hPa | 0 mm | - | - | - |
| 1777930964 | 24.44° C | 30% | 995 hPa | 0 mm | - | - | - |
| 1777930605 | 24.44° C | 31% | 995.1 hPa | 0 mm | - | - | - |
| 1777930244 | 24.44° C | 31% | 995.2 hPa | 0 mm | - | - | - |
| 1777929884 | 23.89° C | 31% | 995.3 hPa | 0 mm | - | - | - |
| 1777929524 | 23.89° C | 30% | 995.4 hPa | 0 mm | - | - | - |
| 1777929164 | 23.89° C | 30% | 995.5 hPa | 0 mm | - | - | - |
| 1777928804 | 23.89° C | 28% | 995.7 hPa | 0 mm | - | - | - |
| 1777928444 | 23.89° C | 27% | 995.6 hPa | 0 mm | - | - | - |
| 1777928084 | 24.44° C | 24% | 995.6 hPa | 0 mm | - | - | - |
| 1777927724 | 25° C | 24% | 995.5 hPa | 0 mm | - | - | - |
| 1777927364 | 24.44° C | 26% | 995.5 hPa | 0 mm | - | - | - |
| 1777927004 | 23.89° C | 26% | 995.6 hPa | 0 mm | - | - | - |
| 1777926644 | 23.89° C | 26% | 995.8 hPa | 0 mm | - | - | - |
| 1777926284 | 23.89° C | 25% | 995.8 hPa | 0 mm | - | - | - |
| 1777925924 | 24.44° C | 23% | 995.8 hPa | 0 mm | - | - | - |
| 1777925564 | 24.44° C | 22% | 995.8 hPa | 0 mm | - | - | - |
| 1777925204 | 23.89° C | 22% | 995.7 hPa | 0 mm | - | - | - |
| 1777924844 | 25° C | 21% | 0 hPa | 0 mm | - | - | - |
| 1777924484 | 25° C | 20% | 0 hPa | 0 mm | - | - | - |
| 1777924124 | 25° C | 20% | 995.8 hPa | 0 mm | - | - | - |
| 1777923764 | 25° C | 20% | 995.8 hPa | 0 mm | - | - | - |
| 1777923404 | 25° C | 20% | 995.9 hPa | 0 mm | - | - | - |
* Rain latest hour (hover to see other rain measurements)
** Current wind speed in m/s (hover to see current wind gust speed)